Butgenbach, Belgium
Current Conditions -  °F | °C
As of 2:03 AM on Monday 24 Nov 2014 (Local Time) from EBLB Reporting Station
Broken Clouds Broken Clouds  
Wind Chill: 50°   Ceiling: 800
Heat Index: 50°   Visibility: 6mi
Dew Point: 48°   Wind: 5mph
Humidity: 94%   Direction: 250°WSW
Pressure: 30.06"   Gusts: NA
Location:  50.43°N, 6.21°E
Report Text: EBLB 240103Z AUTO 25004KT 9999 SCT006/// BKN008/// 10/09 Q1018 YLO
Loading
Personal Weather Stations






























Interactive Weather Map New forecast layout! Learn more

10-Day Weather Forecast

Advertisements
Track Severe Weather on mobile